Time;durP1;ratioP1;P1;durP2;ratioP2;P2;SDS_P1;SDS_P2;PMS_P1;PMS_P2;Temp;Humidity;BMP_temperature;BMP_pressure;BME280_temperature;BME280_humidity;BME280_pressure;Samples;Min_cycle;Max_cycle;Signal;HPM_P1;HPM_P2
2023/07/19 00:00:09;;;;;;;;;;;18.60;84.90;;;;;;2075870;28;19913;-66
2023/07/19 00:01:16;;;;;;;;;;;18.60;84.70;;;;;;2076109;28;19971;-66
2023/07/19 00:02:16;;;;;;;;;;;18.60;84.50;;;;;;2067018;28;19918;-71
2023/07/19 00:03:17;;;;;;;;;;;18.60;84.50;;;;;;2072896;28;20448;-71
2023/07/19 00:04:17;;;;;;;;;;;18.60;84.70;;;;;;2079746;28;20626;-69
2023/07/19 00:05:18;;;;;;;;;;;18.50;84.90;;;;;;2075284;28;20280;-77
2023/07/19 00:06:18;;;;;;;;;;;18.50;85.10;;;;;;2075722;28;19943;-72
2023/07/19 00:07:19;;;;;;;;;;;18.50;85.30;;;;;;2075500;28;19940;-73
2023/07/19 00:08:19;;;;;;;;;;;18.50;85.40;;;;;;2075811;28;20328;-71
2023/07/19 00:09:20;;;;;;;;;;;18.50;85.50;;;;;;2072197;28;20028;-72
2023/07/19 00:10:20;;;;;;;;;;;18.50;85.50;;;;;;2075124;28;20404;-71
2023/07/19 00:11:21;;;;;;;;;;;18.40;85.50;;;;;;2075215;28;19920;-73
2023/07/19 00:12:22;;;;;;;;;;;18.40;85.80;;;;;;2076016;28;19956;-70
2023/07/19 00:13:23;;;;;;;;;;;18.40;85.90;;;;;;2089096;28;19917;-73
2023/07/19 00:14:23;;;;;;;;;;;18.40;86.00;;;;;;2080036;28;19913;-72
2023/07/19 00:15:24;;;;;;;;;;;18.40;86.00;;;;;;2074434;28;20008;-71
2023/07/19 00:16:25;;;;;;;;;;;18.30;86.10;;;;;;2075064;28;19916;-73
2023/07/19 00:17:25;;;;;;;;;;;18.30;86.20;;;;;;2077503;28;19975;-73
2023/07/19 00:18:26;;;;;;;;;;;18.30;86.30;;;;;;2073028;28;20011;-71
2023/07/19 00:19:26;;;;;;;;;;;18.30;86.50;;;;;;2075908;28;19914;-72
2023/07/19 00:20:27;;;;;;;;;;;18.30;86.60;;;;;;2086570;28;19921;-73
2023/07/19 00:21:28;;;;;;;;;;;18.20;86.80;;;;;;2089234;28;20012;-73
2023/07/19 00:22:28;;;;;;;;;;;18.20;86.80;;;;;;2075704;28;19924;-72
2023/07/19 00:23:29;;;;;;;;;;;18.20;86.90;;;;;;2075663;28;19921;-72
2023/07/19 00:24:29;;;;;;;;;;;18.20;87.10;;;;;;2075689;28;20279;-72
2023/07/19 00:25:30;;;;;;;;;;;18.10;87.20;;;;;;2077425;28;19936;-73
2023/07/19 00:26:30;;;;;;;;;;;18.10;87.50;;;;;;2075678;28;20361;-72
2023/07/19 00:27:31;;;;;;;;;;;18.10;87.50;;;;;;2074970;28;19917;-72
2023/07/19 00:28:31;;;;;;;;;;;18.10;87.60;;;;;;2075020;28;19913;-72
2023/07/19 00:29:32;;;;;;;;;;;18.10;87.70;;;;;;2086447;28;20454;-71
2023/07/19 00:30:32;;;;;;;;;;;18.00;87.80;;;;;;2089255;28;20449;-73
2023/07/19 00:31:33;;;;;;;;;;;18.00;87.90;;;;;;2075484;28;19960;-72
2023/07/19 00:32:33;;;;;;;;;;;18.00;87.90;;;;;;2072662;28;20363;-72
2023/07/19 00:33:34;;;;;;;;;;;18.00;88.00;;;;;;2075750;28;19925;-72
2023/07/19 00:34:35;;;;;;;;;;;17.90;88.00;;;;;;2068407;28;20370;-72
2023/07/19 00:35:40;;;;;;;;;;;18.00;88.20;;;;;;2067284;28;19917;-73
2023/07/19 00:36:41;;;;;;;;;;;17.90;88.10;;;;;;2064346;28;19921;-72
2023/07/19 00:37:43;;;;;;;;;;;17.90;88.10;;;;;;2074946;28;19940;-73
2023/07/19 00:38:43;;;;;;;;;;;17.90;88.10;;;;;;2073612;28;19914;-71
2023/07/19 00:39:44;;;;;;;;;;;17.90;88.30;;;;;;2081542;28;20726;-73
2023/07/19 00:40:44;;;;;;;;;;;17.90;88.40;;;;;;2074865;28;20340;-72
2023/07/19 00:41:45;;;;;;;;;;;17.90;88.60;;;;;;2074741;28;19921;-71
2023/07/19 00:42:46;;;;;;;;;;;17.90;88.80;;;;;;2077488;28;19920;-71
2023/07/19 00:43:47;;;;;;;;;;;17.90;90.90;;;;;;2074728;28;19917;-73
2023/07/19 00:44:49;;;;;;;;;;;17.90;91.20;;;;;;2074920;28;20447;-72
2023/07/19 00:45:53;;;;;;;;;;;17.90;91.20;;;;;;2075663;28;19932;-72
2023/07/19 00:46:53;;;;;;;;;;;17.90;91.00;;;;;;2075604;28;20167;-72
2023/07/19 00:47:54;;;;;;;;;;;17.90;90.50;;;;;;2074750;28;20072;-71
2023/07/19 00:48:59;;;;;;;;;;;17.90;90.50;;;;;;2076711;28;19940;-72
2023/07/19 00:49:59;;;;;;;;;;;17.90;90.50;;;;;;2074699;28;19928;-72
2023/07/19 00:51:00;;;;;;;;;;;17.90;90.60;;;;;;2066340;28;20311;-71
2023/07/19 00:52:02;;;;;;;;;;;17.90;90.80;;;;;;2074779;28;19921;-72
2023/07/19 00:53:03;;;;;;;;;;;17.90;90.80;;;;;;2076702;28;19940;-72
2023/07/19 00:54:05;;;;;;;;;;;17.90;90.80;;;;;;2074737;28;19920;-71
2023/07/19 00:55:06;;;;;;;;;;;17.90;90.90;;;;;;2074805;28;20454;-72
2023/07/19 00:56:08;;;;;;;;;;;17.90;90.60;;;;;;2074753;28;19917;-71
2023/07/19 00:57:09;;;;;;;;;;;17.90;90.60;;;;;;2074777;28;19997;-71
2023/07/19 00:58:09;;;;;;;;;;;17.90;90.70;;;;;;2077373;28;20305;-72
2023/07/19 00:59:10;;;;;;;;;;;17.80;90.80;;;;;;2075422;28;19917;-72
2023/07/19 01:00:11;;;;;;;;;;;17.90;90.80;;;;;;2074515;28;19963;-72
2023/07/19 01:01:12;;;;;;;;;;;17.80;90.80;;;;;;2066633;28;19910;-72
2023/07/19 01:02:13;;;;;;;;;;;17.80;90.70;;;;;;2076646;28;19917;-71
2023/07/19 01:03:13;;;;;;;;;;;17.80;90.70;;;;;;2086414;28;19968;-71
2023/07/19 01:04:14;;;;;;;;;;;17.80;90.80;;;;;;2086518;28;19924;-72
2023/07/19 01:05:14;;;;;;;;;;;17.70;90.80;;;;;;2069895;28;19917;-72
2023/07/19 01:06:17;;;;;;;;;;;17.70;90.90;;;;;;2076815;28;19960;-71
2023/07/19 01:07:17;;;;;;;;;;;17.70;90.90;;;;;;2075172;28;19914;-73
2023/07/19 01:08:18;;;;;;;;;;;17.70;90.90;;;;;;2073579;28;19963;-71
2023/07/19 01:09:18;;;;;;;;;;;17.70;90.90;;;;;;2073030;28;19932;-73
2023/07/19 01:10:19;;;;;;;;;;;17.70;91.00;;;;;;2075000;28;19924;-71
2023/07/19 01:11:20;;;;;;;;;;;17.70;91.00;;;;;;2077226;28;19972;-73
2023/07/19 01:12:20;;;;;;;;;;;17.70;90.80;;;;;;2077860;28;20175;-73
2023/07/19 01:13:21;;;;;;;;;;;17.60;90.80;;;;;;2071619;28;19968;-74
2023/07/19 01:14:22;;;;;;;;;;;17.60;90.80;;;;;;2079529;28;19919;-71
2023/07/19 01:15:22;;;;;;;;;;;17.60;90.90;;;;;;2076705;28;20183;-74
2023/07/19 01:16:23;;;;;;;;;;;17.60;90.90;;;;;;2074682;28;20430;-73
2023/07/19 01:17:23;;;;;;;;;;;17.50;90.90;;;;;;2071832;28;19917;-73
2023/07/19 01:18:24;;;;;;;;;;;17.50;91.00;;;;;;2074628;28;20388;-73
2023/07/19 01:19:25;;;;;;;;;;;17.50;91.10;;;;;;2076410;28;19917;-73
2023/07/19 01:20:27;;;;;;;;;;;17.50;91.10;;;;;;2081459;28;19966;-70
2023/07/19 01:21:28;;;;;;;;;;;17.40;91.10;;;;;;2070743;28;19925;-70
2023/07/19 01:22:33;;;;;;;;;;;17.40;91.10;;;;;;2066626;28;19917;-73
2023/07/19 01:23:34;;;;;;;;;;;17.40;91.10;;;;;;2074533;28;20434;-72
2023/07/19 01:24:34;;;;;;;;;;;17.40;91.10;;;;;;2074742;28;19917;-71
2023/07/19 01:25:36;;;;;;;;;;;17.30;91.20;;;;;;2068732;28;19921;-73
2023/07/19 01:26:37;;;;;;;;;;;17.30;91.30;;;;;;2074884;28;19917;-73
2023/07/19 01:27:37;;;;;;;;;;;17.30;91.40;;;;;;2074577;28;19917;-73
2023/07/19 01:28:38;;;;;;;;;;;17.30;91.50;;;;;;2074542;28;19921;-72
2023/07/19 01:29:39;;;;;;;;;;;17.30;91.90;;;;;;2075128;28;20008;-72
2023/07/19 01:30:39;;;;;;;;;;;17.30;91.60;;;;;;2077088;28;19917;-72
2023/07/19 01:31:40;;;;;;;;;;;17.20;91.70;;;;;;2075195;28;19971;-72
2023/07/19 01:32:40;;;;;;;;;;;17.20;91.70;;;;;;2075277;28;20320;-73
2023/07/19 01:33:41;;;;;;;;;;;17.20;91.70;;;;;;2078772;28;19916;-73
2023/07/19 01:34:41;;;;;;;;;;;17.20;91.70;;;;;;2074683;28;19941;-73
2023/07/19 01:35:42;;;;;;;;;;;17.20;91.70;;;;;;2088889;28;19915;-73
2023/07/19 01:36:42;;;;;;;;;;;17.20;91.80;;;;;;2074709;28;19913;-76
2023/07/19 01:37:43;;;;;;;;;;;17.20;91.90;;;;;;2074908;28;20427;-71
2023/07/19 01:38:43;;;;;;;;;;;17.20;91.90;;;;;;2074538;28;19917;-71
2023/07/19 01:39:44;;;;;;;;;;;17.20;92.00;;;;;;2068513;28;19917;-72
2023/07/19 01:40:44;;;;;;;;;;;17.10;92.00;;;;;;2066746;28;19929;-72
2023/07/19 01:41:46;;;;;;;;;;;17.20;92.10;;;;;;2075017;28;19913;-72
2023/07/19 01:42:47;;;;;;;;;;;17.10;92.10;;;;;;2075317;28;19917;-74
2023/07/19 01:43:47;;;;;;;;;;;17.10;92.20;;;;;;2074489;28;20427;-72
2023/07/19 01:44:50;;;;;;;;;;;17.10;92.30;;;;;;2075025;28;19917;-71
2023/07/19 01:45:51;;;;;;;;;;;17.10;92.30;;;;;;2076754;28;19967;-72
2023/07/19 01:46:52;;;;;;;;;;;17.10;92.40;;;;;;2067102;28;20463;-72
2023/07/19 01:47:53;;;;;;;;;;;17.00;92.50;;;;;;2082703;28;20087;-74
2023/07/19 01:48:54;;;;;;;;;;;17.00;92.50;;;;;;2084383;28;20018;-72
2023/07/19 01:49:54;;;;;;;;;;;17.00;92.60;;;;;;2082672;28;20026;-71
2023/07/19 01:50:55;;;;;;;;;;;17.00;92.70;;;;;;2080955;28;19980;-71
2023/07/19 01:51:55;;;;;;;;;;;17.00;92.80;;;;;;2075421;28;19913;-72
2023/07/19 01:52:56;;;;;;;;;;;17.00;92.90;;;;;;2078378;28;20047;-71
2023/07/19 01:53:56;;;;;;;;;;;17.00;92.90;;;;;;2074160;28;19921;-71
2023/07/19 01:54:57;;;;;;;;;;;17.00;93.00;;;;;;2078150;28;20371;-72
2023/07/19 01:55:58;;;;;;;;;;;17.00;93.10;;;;;;2073944;28;19920;-72
2023/07/19 01:56:59;;;;;;;;;;;17.00;93.20;;;;;;2067849;28;19914;-72
2023/07/19 01:57:59;;;;;;;;;;;17.00;93.30;;;;;;2075777;28;20012;-72
2023/07/19 01:59:00;;;;;;;;;;;16.90;93.40;;;;;;2069673;28;19952;-71
2023/07/19 02:00:00;;;;;;;;;;;16.90;93.60;;;;;;2076041;28;20538;-71
2023/07/19 02:01:01;;;;;;;;;;;16.90;93.70;;;;;;2076842;28;19913;-72
2023/07/19 02:02:01;;;;;;;;;;;16.90;93.80;;;;;;2073285;28;20685;-74
2023/07/19 02:03:02;;;;;;;;;;;16.90;94.00;;;;;;2068022;28;19956;-73
2023/07/19 02:04:03;;;;;;;;;;;16.90;94.20;;;;;;2074361;28;20430;-72
2023/07/19 02:05:04;;;;;;;;;;;16.90;94.30;;;;;;2076793;28;19924;-71
2023/07/19 02:06:04;;;;;;;;;;;16.90;94.80;;;;;;2076013;28;19968;-71
2023/07/19 02:07:05;;;;;;;;;;;16.90;94.80;;;;;;2075876;28;20403;-71
2023/07/19 02:08:05;;;;;;;;;;;16.90;94.70;;;;;;2077239;28;19944;-73
2023/07/19 02:09:07;;;;;;;;;;;17.00;94.90;;;;;;2068995;28;19924;-73
2023/07/19 02:10:08;;;;;;;;;;;17.00;95.00;;;;;;2069904;28;19969;-73
2023/07/19 02:11:09;;;;;;;;;;;17.00;95.20;;;;;;2063080;28;19918;-73
2023/07/19 02:12:09;;;;;;;;;;;17.00;95.10;;;;;;2067747;28;19954;-73
2023/07/19 02:13:10;;;;;;;;;;;17.00;95.30;;;;;;2070005;28;19920;-73
2023/07/19 02:14:11;;;;;;;;;;;16.90;95.30;;;;;;2075635;28;20263;-73
2023/07/19 02:15:11;;;;;;;;;;;17.00;95.40;;;;;;2075884;28;19963;-73
2023/07/19 02:16:12;;;;;;;;;;;17.00;95.40;;;;;;2073301;28;19960;-73
2023/07/19 02:17:14;;;;;;;;;;;16.90;95.50;;;;;;2071488;28;21346;-73
2023/07/19 02:18:15;;;;;;;;;;;16.90;95.50;;;;;;2067467;28;20577;-73
2023/07/19 02:19:17;;;;;;;;;;;16.90;95.60;;;;;;2067906;28;20316;-73
2023/07/19 02:20:19;;;;;;;;;;;16.80;95.80;;;;;;2075472;28;20216;-73
2023/07/19 02:21:19;;;;;;;;;;;16.80;95.90;;;;;;2079523;28;20342;-73
2023/07/19 02:22:20;;;;;;;;;;;16.80;96.10;;;;;;2081353;28;19916;-73
2023/07/19 02:23:21;;;;;;;;;;;16.80;96.30;;;;;;2075958;28;19917;-73
2023/07/19 02:24:22;;;;;;;;;;;16.80;96.40;;;;;;2076538;28;20435;-75
2023/07/19 02:25:22;;;;;;;;;;;16.80;96.90;;;;;;2076722;28;19917;-73
2023/07/19 02:26:23;;;;;;;;;;;16.80;96.60;;;;;;2078518;28;19918;-73
2023/07/19 02:27:24;;;;;;;;;;;16.80;96.80;;;;;;2076675;28;19921;-72
2023/07/19 02:28:24;;;;;;;;;;;16.80;96.90;;;;;;2076517;28;19924;-72
2023/07/19 02:29:25;;;;;;;;;;;16.70;97.00;;;;;;2076529;28;19919;-73
2023/07/19 02:30:26;;;;;;;;;;;16.80;97.00;;;;;;2076506;28;19944;-72
2023/07/19 02:31:26;;;;;;;;;;;16.80;97.00;;;;;;2078467;28;19917;-72
2023/07/19 02:32:27;;;;;;;;;;;16.70;97.00;;;;;;2075907;28;20107;-72
2023/07/19 02:33:27;;;;;;;;;;;16.70;97.00;;;;;;2067678;28;19925;-73
2023/07/19 02:34:28;;;;;;;;;;;16.70;97.00;;;;;;2075833;28;20462;-73
2023/07/19 02:35:29;;;;;;;;;;;16.70;97.10;;;;;;2076605;28;19917;-71
2023/07/19 02:36:29;;;;;;;;;;;16.70;97.00;;;;;;2078457;28;19961;-72
2023/07/19 02:37:30;;;;;;;;;;;16.70;97.00;;;;;;2075682;28;19913;-73
2023/07/19 02:38:30;;;;;;;;;;;16.70;97.00;;;;;;2072002;28;19919;-72
2023/07/19 02:39:31;;;;;;;;;;;16.60;97.20;;;;;;2078410;28;19920;-72
2023/07/19 02:40:31;;;;;;;;;;;16.60;97.30;;;;;;2075684;28;19923;-72
2023/07/19 02:41:33;;;;;;;;;;;16.60;97.30;;;;;;2075802;28;19913;-73
2023/07/19 02:42:36;;;;;;;;;;;16.60;97.30;;;;;;2075596;28;19924;-72
2023/07/19 02:43:36;;;;;;;;;;;16.50;97.40;;;;;;2075494;28;20478;-71
2023/07/19 02:44:37;;;;;;;;;;;16.50;97.50;;;;;;2075577;28;19917;-72
2023/07/19 02:45:37;;;;;;;;;;;16.50;97.60;;;;;;2076976;28;20086;-72
2023/07/19 02:46:38;;;;;;;;;;;16.50;97.60;;;;;;2077338;28;19949;-72
2023/07/19 02:47:38;;;;;;;;;;;16.50;97.60;;;;;;2075691;28;19917;-72
2023/07/19 02:48:39;;;;;;;;;;;16.50;97.80;;;;;;2075800;28;19917;-72
2023/07/19 02:49:40;;;;;;;;;;;16.50;97.90;;;;;;2076462;28;19925;-71
2023/07/19 02:50:44;;;;;;;;;;;16.50;98.00;;;;;;2069607;28;19920;-71
2023/07/19 02:51:45;;;;;;;;;;;16.50;98.00;;;;;;2068210;28;19957;-72
2023/07/19 02:52:46;;;;;;;;;;;16.50;98.00;;;;;;2075865;28;19917;-72
2023/07/19 02:53:47;;;;;;;;;;;16.40;97.90;;;;;;2076528;28;20328;-72
2023/07/19 02:54:47;;;;;;;;;;;16.40;98.00;;;;;;2077485;28;20426;-72
2023/07/19 02:55:48;;;;;;;;;;;16.40;98.20;;;;;;2075757;28;19928;-72
2023/07/19 02:56:48;;;;;;;;;;;16.40;98.40;;;;;;2075625;28;19923;-72
2023/07/19 02:57:49;;;;;;;;;;;16.40;98.50;;;;;;2075587;28;20013;-71
2023/07/19 02:58:50;;;;;;;;;;;16.30;98.60;;;;;;2077675;28;19917;-71
2023/07/19 02:59:50;;;;;;;;;;;16.30;98.70;;;;;;2075591;28;20074;-72
2023/07/19 03:00:53;;;;;;;;;;;16.30;98.80;;;;;;2075445;28;20478;-73
2023/07/19 03:01:53;;;;;;;;;;;16.30;98.90;;;;;;2075522;28;20067;-72
2023/07/19 03:02:55;;;;;;;;;;;16.30;99.00;;;;;;2075682;28;19921;-71
2023/07/19 03:03:57;;;;;;;;;;;16.20;99.00;;;;;;2077319;28;19921;-72
2023/07/19 03:04:57;;;;;;;;;;;16.20;99.60;;;;;;2076317;28;20296;-72
2023/07/19 03:05:58;;;;;;;;;;;16.20;99.30;;;;;;2076249;28;19960;-73
2023/07/19 03:06:58;;;;;;;;;;;16.20;99.40;;;;;;2076162;28;20089;-72
2023/07/19 03:08:00;;;;;;;;;;;16.20;99.50;;;;;;2077516;28;20086;-72
2023/07/19 03:09:00;;;;;;;;;;;16.20;99.60;;;;;;2071710;28;19913;-72
2023/07/19 03:10:01;;;;;;;;;;;16.10;99.80;;;;;;2075599;28;19921;-72
2023/07/19 03:11:02;;;;;;;;;;;16.20;99.90;;;;;;2075501;28;19913;-72
2023/07/19 03:12:02;;;;;;;;;;;16.10;99.90;;;;;;2075311;28;20296;-72
2023/07/19 03:13:03;;;;;;;;;;;16.10;99.90;;;;;;2075577;28;20399;-72
2023/07/19 03:14:05;;;;;;;;;;;16.10;99.90;;;;;;2075439;28;19918;-72
2023/07/19 03:15:05;;;;;;;;;;;16.10;99.90;;;;;;2069446;28;19957;-72
2023/07/19 03:16:06;;;;;;;;;;;16.10;99.90;;;;;;2067387;28;20372;-72
2023/07/19 03:17:07;;;;;;;;;;;16.10;99.90;;;;;;2067288;28;20466;-72
2023/07/19 03:18:07;;;;;;;;;;;16.10;99.90;;;;;;2062845;28;19914;-72
2023/07/19 03:19:09;;;;;;;;;;;16.10;99.90;;;;;;2081944;28;19979;-72
2023/07/19 03:20:10;;;;;;;;;;;16.10;99.90;;;;;;2086187;28;19921;-72
2023/07/19 03:21:10;;;;;;;;;;;16.10;99.90;;;;;;2077984;28;19962;-72
2023/07/19 03:22:11;;;;;;;;;;;16.10;99.90;;;;;;2079485;28;20419;-71
2023/07/19 03:23:11;;;;;;;;;;;16.10;99.90;;;;;;2075450;28;20307;-72
2023/07/19 03:24:12;;;;;;;;;;;16.10;99.90;;;;;;2077246;28;20564;-72
2023/07/19 03:25:13;;;;;;;;;;;16.10;99.90;;;;;;2075513;28;20402;-72
2023/07/19 03:26:13;;;;;;;;;;;16.10;99.90;;;;;;2075972;28;20016;-72
2023/07/19 03:27:14;;;;;;;;;;;16.10;99.90;;;;;;2074770;28;19917;-72
2023/07/19 03:28:14;;;;;;;;;;;16.10;99.90;;;;;;2073495;28;19917;-71
2023/07/19 03:29:15;;;;;;;;;;;16.10;99.90;;;;;;2075475;28;20680;-71
2023/07/19 03:30:15;;;;;;;;;;;16.10;99.90;;;;;;2075517;28;20055;-72
2023/07/19 03:31:16;;;;;;;;;;;16.20;99.90;;;;;;2075511;28;19963;-71
2023/07/19 03:32:17;;;;;;;;;;;16.10;99.90;;;;;;2076081;28;19920;-72
2023/07/19 03:33:17;;;;;;;;;;;16.20;99.90;;;;;;2078111;28;19913;-71
2023/07/19 03:34:18;;;;;;;;;;;16.20;99.90;;;;;;2075284;28;20702;-71
2023/07/19 03:35:19;;;;;;;;;;;16.20;99.90;;;;;;2075345;28;19968;-72
2023/07/19 03:36:20;;;;;;;;;;;16.20;99.90;;;;;;2075587;28;19924;-70
2023/07/19 03:37:22;;;;;;;;;;;16.20;99.90;;;;;;2077265;28;20023;-71
2023/07/19 03:38:22;;;;;;;;;;;16.20;99.90;;;;;;2073057;28;19940;-72
2023/07/19 03:39:26;;;;;;;;;;;16.20;99.90;;;;;;2073492;28;20396;-71
2023/07/19 03:40:26;;;;;;;;;;;16.20;99.90;;;;;;2068000;28;19920;-72
2023/07/19 03:41:27;;;;;;;;;;;16.20;99.90;;;;;;2072766;28;20007;-72
2023/07/19 03:42:28;;;;;;;;;;;16.20;99.90;;;;;;2070314;28;19913;-71
2023/07/19 03:43:28;;;;;;;;;;;16.20;99.90;;;;;;2075317;28;20450;-72
2023/07/19 03:44:29;;;;;;;;;;;16.20;99.90;;;;;;2075495;28;19924;-71
2023/07/19 03:45:30;;;;;;;;;;;16.20;99.90;;;;;;2077452;28;20035;-73
2023/07/19 03:46:30;;;;;;;;;;;16.20;99.90;;;;;;2075187;28;19944;-71
2023/07/19 03:47:32;;;;;;;;;;;16.30;99.90;;;;;;2064860;28;20017;-70
2023/07/19 03:48:35;;;;;;;;;;;16.30;99.90;;;;;;2066889;28;19988;-71
2023/07/19 03:49:37;;;;;;;;;;;16.30;99.90;;;;;;2067264;28;20435;-70
2023/07/19 03:50:39;;;;;;;;;;;16.30;99.90;;;;;;2077144;28;19928;-71
2023/07/19 03:51:40;;;;;;;;;;;16.30;99.90;;;;;;2067125;28;22317;-71
2023/07/19 03:52:43;;;;;;;;;;;16.30;99.90;;;;;;2067191;28;19917;-72
2023/07/19 03:53:44;;;;;;;;;;;16.30;99.90;;;;;;2075319;28;19917;-71
2023/07/19 03:54:45;;;;;;;;;;;16.40;99.90;;;;;;2064393;28;19949;-71
2023/07/19 03:55:56;;;;;;;;;;;16.40;99.90;;;;;;2064813;28;20407;-71
2023/07/19 03:56:57;;;;;;;;;;;16.40;99.90;;;;;;2068360;28;19910;-71
2023/07/19 03:57:58;;;;;;;;;;;16.40;99.90;;;;;;2081774;28;20386;-72
2023/07/19 03:58:58;;;;;;;;;;;16.40;99.90;;;;;;2060600;28;20000;-71
2023/07/19 03:59:59;;;;;;;;;;;16.40;99.80;;;;;;2073136;28;20449;-71
2023/07/19 04:00:59;;;;;;;;;;;16.50;99.50;;;;;;2077906;28;20371;-71
2023/07/19 04:02:01;;;;;;;;;;;16.50;99.30;;;;;;2072332;28;19987;-71
2023/07/19 04:03:02;;;;;;;;;;;16.50;99.30;;;;;;2075194;28;19913;-71
2023/07/19 04:04:03;;;;;;;;;;;16.50;99.20;;;;;;2079110;28;20016;-71
2023/07/19 04:05:05;;;;;;;;;;;16.60;99.20;;;;;;2078326;28;19917;-71
2023/07/19 04:06:05;;;;;;;;;;;16.60;99.30;;;;;;2077280;28;19917;-72
2023/07/19 04:07:06;;;;;;;;;;;16.60;99.10;;;;;;2074947;28;19927;-70
2023/07/19 04:08:09;;;;;;;;;;;16.60;99.10;;;;;;2075322;28;20374;-71
2023/07/19 04:09:09;;;;;;;;;;;16.70;99.10;;;;;;2070835;28;19917;-75
2023/07/19 04:10:10;;;;;;;;;;;16.70;99.10;;;;;;2076938;28;19917;-76
2023/07/19 04:11:11;;;;;;;;;;;16.70;98.90;;;;;;2075070;28;21022;-71
2023/07/19 04:12:11;;;;;;;;;;;16.80;98.70;;;;;;2087005;28;19912;-71
2023/07/19 04:13:13;;;;;;;;;;;16.80;98.40;;;;;;2078389;28;20446;-71
2023/07/19 04:14:14;;;;;;;;;;;16.80;98.30;;;;;;2074899;28;19929;-71
2023/07/19 04:15:15;;;;;;;;;;;16.90;98.40;;;;;;2078572;28;19928;-72
2023/07/19 04:16:17;;;;;;;;;;;16.90;98.20;;;;;;2077466;28;19913;-70
2023/07/19 04:17:19;;;;;;;;;;;17.00;98.00;;;;;;2077013;28;19917;-71
2023/07/19 04:18:19;;;;;;;;;;;17.00;97.90;;;;;;2066762;28;19925;-72
2023/07/19 04:19:21;;;;;;;;;;;17.20;97.40;;;;;;2077608;28;20423;-71
2023/07/19 04:20:22;;;;;;;;;;;17.40;96.70;;;;;;2076282;28;20149;-72
2023/07/19 04:21:23;;;;;;;;;;;17.60;96.10;;;;;;2077005;28;20008;-72
2023/07/19 04:22:23;;;;;;;;;;;17.90;95.20;;;;;;2074910;28;19920;-72
2023/07/19 04:23:25;;;;;;;;;;;18.30;94.40;;;;;;2062145;28;20012;-70
2023/07/19 04:24:25;;;;;;;;;;;18.60;93.50;;;;;;2075831;28;19917;-71
2023/07/19 04:25:26;;;;;;;;;;;18.80;92.60;;;;;;2074824;28;19967;-72
2023/07/19 04:26:27;;;;;;;;;;;19.00;92.00;;;;;;2066670;28;19964;-72
2023/07/19 04:27:28;;;;;;;;;;;19.20;91.60;;;;;;2066914;28;19914;-72
2023/07/19 04:28:29;;;;;;;;;;;19.40;91.10;;;;;;2076755;28;20326;-72
2023/07/19 04:29:29;;;;;;;;;;;19.60;90.30;;;;;;2074780;28;20411;-72
2023/07/19 04:30:30;;;;;;;;;;;19.70;90.00;;;;;;2074725;28;20427;-71
2023/07/19 04:31:30;;;;;;;;;;;19.80;89.80;;;;;;2066772;28;19985;-72
2023/07/19 04:32:31;;;;;;;;;;;19.80;89.50;;;;;;2058689;28;19936;-71
2023/07/19 04:33:32;;;;;;;;;;;19.90;89.10;;;;;;2066783;28;19917;-71
2023/07/19 04:34:33;;;;;;;;;;;20.00;88.80;;;;;;2074851;28;20008;-71
2023/07/19 04:35:34;;;;;;;;;;;20.10;88.50;;;;;;2088810;28;20445;-71
2023/07/19 04:36:35;;;;;;;;;;;20.20;88.00;;;;;;2079546;28;19917;-71
2023/07/19 04:37:38;;;;;;;;;;;20.40;87.30;;;;;;2064943;28;19917;-71
2023/07/19 04:38:39;;;;;;;;;;;20.60;86.70;;;;;;2073063;28;19936;-71
2023/07/19 04:39:40;;;;;;;;;;;20.70;85.90;;;;;;2077188;28;20020;-71
2023/07/19 04:40:41;;;;;;;;;;;20.80;85.40;;;;;;2075573;28;19915;-71
2023/07/19 04:41:42;;;;;;;;;;;20.80;85.30;;;;;;2074807;28;19921;-71
2023/07/19 04:42:43;;;;;;;;;;;20.90;85.70;;;;;;2070012;28;19939;-71
2023/07/19 04:43:45;;;;;;;;;;;20.90;85.60;;;;;;2072553;28;19918;-70
2023/07/19 04:44:46;;;;;;;;;;;21.00;86.00;;;;;;2074895;28;19991;-70
2023/07/19 04:45:47;;;;;;;;;;;21.00;85.50;;;;;;2067447;28;20005;-70
2023/07/19 04:46:48;;;;;;;;;;;20.90;85.80;;;;;;2067064;28;20454;-70
2023/07/19 04:47:49;;;;;;;;;;;20.80;86.20;;;;;;2072886;28;19968;-70
2023/07/19 04:48:49;;;;;;;;;;;20.70;85.60;;;;;;2078292;28;20476;-70
2023/07/19 04:49:51;;;;;;;;;;;20.60;86.50;;;;;;2072139;28;19929;-70
2023/07/19 04:50:54;;;;;;;;;;;20.70;86.60;;;;;;2073264;28;19917;-70
2023/07/19 04:51:54;;;;;;;;;;;20.70;86.70;;;;;;2074876;28;19921;-70
2023/07/19 04:52:55;;;;;;;;;;;20.70;86.50;;;;;;2074909;28;19917;-70
2023/07/19 04:53:55;;;;;;;;;;;20.90;86.00;;;;;;2076601;28;19953;-70
2023/07/19 04:54:56;;;;;;;;;;;21.10;85.60;;;;;;2074757;28;20415;-70
2023/07/19 04:55:58;;;;;;;;;;;21.30;84.70;;;;;;2066577;28;20345;-70
2023/07/19 04:57:03;;;;;;;;;;;21.50;83.70;;;;;;2065105;28;20352;-71
2023/07/19 04:58:04;;;;;;;;;;;21.50;83.50;;;;;;2079017;28;19921;-73
2023/07/19 04:59:04;;;;;;;;;;;21.70;83.00;;;;;;2077214;28;19917;-71
2023/07/19 05:00:11;;;;;;;;;;;21.80;82.20;;;;;;2075483;28;19963;-71
2023/07/19 05:01:11;;;;;;;;;;;22.00;81.70;;;;;;2074922;28;19972;-71
2023/07/19 05:02:13;;;;;;;;;;;22.30;80.90;;;;;;2071326;28;19924;-71
2023/07/19 05:03:14;;;;;;;;;;;22.50;80.00;;;;;;2066624;28;19917;-70
2023/07/19 05:04:15;;;;;;;;;;;22.60;79.10;;;;;;2076933;28;19921;-71
2023/07/19 05:05:16;;;;;;;;;;;22.80;78.10;;;;;;2079595;28;19917;-71
2023/07/19 05:06:16;;;;;;;;;;;22.90;77.40;;;;;;2074708;28;20414;-70
2023/07/19 05:07:17;;;;;;;;;;;23.00;76.90;;;;;;2066320;28;19920;-71
2023/07/19 05:08:17;;;;;;;;;;;23.20;76.60;;;;;;2068632;28;19936;-71
2023/07/19 05:09:18;;;;;;;;;;;23.30;76.20;;;;;;2071166;28;20549;-71
2023/07/19 05:10:19;;;;;;;;;;;23.30;76.00;;;;;;2074635;28;19929;-71
2023/07/19 05:11:20;;;;;;;;;;;23.30;75.30;;;;;;2074797;28;20080;-71
2023/07/19 05:12:21;;;;;;;;;;;23.30;75.60;;;;;;2068584;28;20392;-71
2023/07/19 05:13:22;;;;;;;;;;;23.10;75.10;;;;;;2074516;28;19913;-71
2023/07/19 05:14:23;;;;;;;;;;;23.20;75.70;;;;;;2074589;28;19917;-70
2023/07/19 05:15:24;;;;;;;;;;;23.20;75.10;;;;;;2074840;28;19939;-71
2023/07/19 05:16:25;;;;;;;;;;;23.30;74.70;;;;;;2074648;28;19917;-70
2023/07/19 05:17:26;;;;;;;;;;;23.20;74.70;;;;;;2076537;28;20169;-71
2023/07/19 05:18:26;;;;;;;;;;;23.30;74.90;;;;;;2066570;28;19921;-70
2023/07/19 05:19:27;;;;;;;;;;;23.40;74.50;;;;;;2074686;28;19921;-70
2023/07/19 05:20:28;;;;;;;;;;;23.60;73.90;;;;;;2074452;28;19925;-71
2023/07/19 05:21:28;;;;;;;;;;;23.80;73.00;;;;;;2074700;28;19956;-71
2023/07/19 05:22:30;;;;;;;;;;;24.00;72.50;;;;;;2077957;28;19960;-71
2023/07/19 05:23:31;;;;;;;;;;;24.00;71.70;;;;;;2080344;28;19917;-71
2023/07/19 05:24:31;;;;;;;;;;;24.00;71.50;;;;;;2074609;28;20731;-71
2023/07/19 05:25:32;;;;;;;;;;;23.80;72.20;;;;;;2074557;28;19921;-70
2023/07/19 05:26:32;;;;;;;;;;;23.70;71.80;;;;;;2066549;28;19960;-71
2023/07/19 05:27:33;;;;;;;;;;;23.50;72.30;;;;;;2077767;28;19917;-71
2023/07/19 05:28:33;;;;;;;;;;;23.60;72.50;;;;;;2076962;28;19960;-71
2023/07/19 05:29:34;;;;;;;;;;;23.60;72.30;;;;;;2076930;28;19924;-72
2023/07/19 05:30:34;;;;;;;;;;;23.50;72.40;;;;;;2088087;28;20407;-75
2023/07/19 05:31:35;;;;;;;;;;;23.60;72.80;;;;;;2079676;28;20298;-70
2023/07/19 05:32:36;;;;;;;;;;;23.80;72.50;;;;;;2078199;28;19917;-73
2023/07/19 05:33:36;;;;;;;;;;;24.00;72.10;;;;;;2067846;28;19917;-73
2023/07/19 05:34:37;;;;;;;;;;;24.20;70.90;;;;;;2067778;28;19917;-75
2023/07/19 05:35:37;;;;;;;;;;;24.30;70.40;;;;;;2069798;28;19917;-73
2023/07/19 05:36:38;;;;;;;;;;;24.50;70.10;;;;;;2068233;28;19956;-74
2023/07/19 05:37:39;;;;;;;;;;;24.50;69.90;;;;;;2071906;28;19960;-74
2023/07/19 05:38:40;;;;;;;;;;;24.60;69.70;;;;;;2080055;28;19917;-72
2023/07/19 05:39:41;;;;;;;;;;;24.70;68.90;;;;;;2077113;28;19967;-74
2023/07/19 05:40:41;;;;;;;;;;;24.70;68.30;;;;;;2087598;28;19986;-73
2023/07/19 05:41:42;;;;;;;;;;;24.80;68.40;;;;;;2091086;28;19912;-74
2023/07/19 05:42:42;;;;;;;;;;;24.90;68.10;;;;;;2076547;28;19960;-74
2023/07/19 05:43:43;;;;;;;;;;;25.00;67.40;;;;;;2076727;28;20360;-73
2023/07/19 05:44:43;;;;;;;;;;;25.10;67.50;;;;;;2077755;28;20168;-73
2023/07/19 05:45:44;;;;;;;;;;;25.00;67.40;;;;;;2075936;28;20419;-72
2023/07/19 05:46:44;;;;;;;;;;;25.00;67.10;;;;;;2074140;28;19917;-73
2023/07/19 05:47:45;;;;;;;;;;;25.00;67.00;;;;;;2076743;28;19923;-73
2023/07/19 05:48:45;;;;;;;;;;;25.20;67.10;;;;;;2076294;28;19917;-75
2023/07/19 05:49:46;;;;;;;;;;;25.10;67.80;;;;;;2076184;28;19925;-73
2023/07/19 05:50:46;;;;;;;;;;;25.20;67.00;;;;;;2077961;28;19967;-74
2023/07/19 05:51:47;;;;;;;;;;;25.30;67.00;;;;;;2077709;28;20363;-73
2023/07/19 05:52:47;;;;;;;;;;;25.40;66.70;;;;;;2074203;28;19923;-73
2023/07/19 05:53:48;;;;;;;;;;;25.50;66.50;;;;;;2078671;28;19917;-73